Spabunker 51 — ECNA — position and weather

sailwx.info

Track history (hours):
 
Tides and Currents Weather Stations Pressure Air Temp Water Temp Dewpoint Dewpoint Depression Visibility Wind Speed Wind Dir Waves Ship Positions

Spabunker 51

Last reported at 2015-May-15 00:24 UTC. Time now 2015-May-29 20:31 UTC.
Position N 36°06' W 005°24'.
Warning: this ship's position is 14 days out of date.

Length 84 m; draft 5.8 m.

Type: Ship (hazmat cat A). MMSI: 224322240.

Date/timePositionNaut miles runAvg speedWind from/ knotsBaromVisibWave heightAir tempDewpointWater temp
2015-May-15 00:24N 36°06' W 005°24'0 0.0
2015-May-14 22:24N 36°06' W 005°24'4 1.7
2015-May-14 20:15N 36°09' W 005°26'4 0.8
2015-May-14 15:33N 36°06' W 005°24'0 0.2
2015-May-14 14:28N 36°06' W 005°24'0 0.0
2015-May-14 13:25N 36°06' W 005°24'0 0.0
2015-May-14 12:31N 36°06' W 005°24'0 0.0
2015-May-14 11:31N 36°06' W 005°24'0 0.0
2015-May-14 10:31N 36°06' W 005°24'3 0.1
2015-May-13 07:12N 36°09' W 005°26'0 0.0
2015-May-13 05:33N 36°09' W 005°26'0 0.0
2015-May-13 04:27N 36°09' W 005°26'0 0.0
2015-May-13 00:32N 36°09' W 005°26'1 0.1
2015-May-12 14:24N 36°08' W 005°25'0 0.0
2015-May-12 13:30N 36°08' W 005°25'0 0.1
2015-May-12 12:28N 36°08' W 005°25'1 0.1
2015-May-12 05:32N 36°09' W 005°26'3 2.1
2015-May-12 04:15N 36°11' W 005°24'0 0.0
2015-May-12 03:09N 36°11' W 005°24'0 0.0
2015-May-12 02:15N 36°11' W 005°24'0 0.0
2015-May-11 23:18N 36°11' W 005°24'0 0.0
2015-May-11 22:33N 36°11' W 005°24'0 0.0
2015-May-11 15:04N 36°11' W 005°24'3 5.7
2015-May-11 14:30N 36°08' W 005°25'0 0.0
2015-May-11 09:30N 36°08' W 005°25'0 0.0
2015-May-11 08:24N 36°08' W 005°25'1 0.7
2015-May-11 07:31N 36°08' W 005°25'2 1.0
2015-May-11 05:33N 36°06' W 005°25'0 0.1
2015-May-11 04:33N 36°06' W 005°25'0 0.2
2015-May-11 03:31N 36°06' W 005°25'0 0.0
2015-May-10 20:28N 36°06' W 005°25'0 0.0
2015-May-10 19:22N 36°06' W 005°25'0 0.0
2015-May-10 18:25N 36°06' W 005°25'0 0.0
2015-May-10 17:31N 36°06' W 005°25'2 2.1
2015-May-10 16:33N 36°08' W 005°25'0 0.5
2015-May-10 15:33N 36°08' W 005°26'0 0.0
2015-May-10 14:18N 36°08' W 005°26'0 0.0
2015-May-10 13:21N 36°08' W 005°26'0 0.0
2015-May-10 12:15N 36°08' W 005°26'0 0.0
2015-May-10 11:21N 36°08' W 005°26'0 0.0
2015-May-10 10:27N 36°08' W 005°26'0 0.0
2015-May-10 09:33N 36°08' W 005°26'2 2.4
2015-May-10 08:31N 36°06' W 005°25'0 0.0
2015-May-10 05:25N 36°06' W 005°25'0 0.0
2015-May-10 04:28N 36°06' W 005°25'0 0.0
2015-May-10 03:31N 36°06' W 005°25'0 0.0
2015-May-10 02:22N 36°06' W 005°25'0 0.1
2015-May-10 00:07N 36°06' W 005°25'1 0.3
2015-May-09 22:30N 36°05' W 005°25'0 0.0
2015-May-09 21:33N 36°05' W 005°25'0 0.0
2015-May-09 20:33N 36°05' W 005°25'0 0.1
2015-May-09 18:30N 36°06' W 005°25'1 0.7
2015-May-09 17:25N 36°06' W 005°25'0 0.1
2015-May-09 16:31N 36°06' W 005°25'0 0.1
2015-May-09 15:16N 36°06' W 005°25'0 0.0
2015-May-09 14:31N 36°06' W 005°25'0 0.0
2015-May-09 13:31N 36°06' W 005°25'0 0.0
2015-May-09 12:31N 36°06' W 005°25'0 0.0
2015-May-09 09:22N 36°06' W 005°25'0 0.1
2015-May-09 08:32N 36°06' W 005°25'3 0.4
2015-May-09 01:04N 36°09' W 005°26'0 0.0
2015-May-09 00:31N 36°09' W 005°26'1 0.1
2015-May-08 14:30N 36°09' W 005°25'3 2.8
2015-May-08 13:33N 36°07' W 005°25'2 1.7
2015-May-08 12:33N 36°05' W 005°24'0 0.1
2015-May-08 11:15N 36°05' W 005°24'0 0.0
2015-May-08 10:30N 36°05' W 005°24'0 0.0
2015-May-08 09:27N 36°05' W 005°24'0 0.1
2015-May-08 08:33N 36°05' W 005°24'4 0.1
2015-May-07 05:32N 36°09' W 005°26'0 0.0
2015-May-07 04:32N 36°09' W 005°26'0 0.0
2015-May-07 01:32N 36°09' W 005°26'0 0.0
2015-May-07 00:32N 36°09' W 005°26'0 0.1
2015-May-06 23:32N 36°09' W 005°26'0 0.1
2015-May-06 22:32N 36°09' W 005°26'0 0.0
2015-May-06 21:32N 36°09' W 005°26'0 0.0
2015-May-06 20:32N 36°09' W 005°26'0 0.0
2015-May-06 19:29N 36°09' W 005°26'0 0.4
2015-May-06 18:32N 36°08' W 005°25'3 2.7
2015-May-06 17:31N 36°06' W 005°24'0 0.0
2015-May-06 16:31N 36°06' W 005°24'0 0.0
2015-May-06 15:28N 36°06' W 005°24'3 3.6
2015-May-06 14:33N 36°09' W 005°26'0 0.3
2015-May-06 13:29N 36°09' W 005°26'0 0.0
2015-May-06 12:29N 36°09' W 005°26'0 0.0
2015-May-06 11:32N 36°09' W 005°26'0 0.0
2015-May-06 10:29N 36°09' W 005°26'0 0.0
2015-May-06 09:23N 36°09' W 005°26'0 0.0
2015-May-06 08:23N 36°09' W 005°26'0 0.0
2015-May-06 07:23N 36°09' W 005°26'0 0.0
2015-May-06 04:17N 36°09' W 005°26'0 0.0
2015-May-06 03:32N 36°09' W 005°26'0 0.0
2015-May-06 02:29N 36°09' W 005°26'1 0.9
2015-May-06 01:30N 36°08' W 005°25'0 0.0
2015-May-06 00:30N 36°08' W 005°25'0 0.0
2015-May-05 23:12N 36°08' W 005°25'0 0.0
2015-May-05 22:30N 36°08' W 005°25'0 0.0
2015-May-05 21:33N 36°08' W 005°25'0 0.0
2015-May-05 20:30N 36°08' W 005°25'0 0.0
2015-May-05 19:33N 36°08' W 005°25'0 0.0
2015-May-05 18:23N 36°08' W 005°25'1 0.4
2015-May-05 16:04N 36°09' W 005°26'2 1.5
2015-May-05 14:26N 36°11' W 005°24'0 0.0
2015-May-05 08:21N 36°11' W 005°24'  
Track history (hours):
 
Tides and Currents Weather Stations Pressure Air Temp Water Temp Dewpoint Dewpoint Depression Visibility Wind Speed Wind Dir Waves Ship Positions

Spabunker 51

Last reported at 2015-May-15 00:24 UTC. Time now 2015-May-29 20:31 UTC.
Position N 36°06' W 005°24'.
Warning: this ship's position is 14 days out of date.

Length 84 m; draft 5.8 m.

Type: Ship (hazmat cat A). MMSI: 224322240.

Date/timePositionNaut miles runAvg speedWind from/ knotsBaromVisibWave heightAir tempDewpointWater temp
2015-May-15 00:24N 36°06' W 005°24'0 0.0
2015-May-14 22:24N 36°06' W 005°24'4 1.7
2015-May-14 20:15N 36°09' W 005°26'4 0.8
2015-May-14 15:33N 36°06' W 005°24'0 0.2
2015-May-14 14:28N 36°06' W 005°24'0 0.0
2015-May-14 13:25N 36°06' W 005°24'0 0.0
2015-May-14 12:31N 36°06' W 005°24'0 0.0
2015-May-14 11:31N 36°06' W 005°24'0 0.0
2015-May-14 10:31N 36°06' W 005°24'3 0.1
2015-May-13 07:12N 36°09' W 005°26'0 0.0
2015-May-13 05:33N 36°09' W 005°26'0 0.0
2015-May-13 04:27N 36°09' W 005°26'0 0.0
2015-May-13 00:32N 36°09' W 005°26'1 0.1
2015-May-12 14:24N 36°08' W 005°25'0 0.0
2015-May-12 13:30N 36°08' W 005°25'0 0.1
2015-May-12 12:28N 36°08' W 005°25'1 0.1
2015-May-12 05:32N 36°09' W 005°26'3 2.1
2015-May-12 04:15N 36°11' W 005°24'0 0.0
2015-May-12 03:09N 36°11' W 005°24'0 0.0
2015-May-12 02:15N 36°11' W 005°24'0 0.0
2015-May-11 23:18N 36°11' W 005°24'0 0.0
2015-May-11 22:33N 36°11' W 005°24'0 0.0
2015-May-11 15:04N 36°11' W 005°24'3 5.7
2015-May-11 14:30N 36°08' W 005°25'0 0.0
2015-May-11 09:30N 36°08' W 005°25'0 0.0
2015-May-11 08:24N 36°08' W 005°25'1 0.7
2015-May-11 07:31N 36°08' W 005°25'2 1.0
2015-May-11 05:33N 36°06' W 005°25'0 0.1
2015-May-11 04:33N 36°06' W 005°25'0 0.2
2015-May-11 03:31N 36°06' W 005°25'0 0.0
2015-May-10 20:28N 36°06' W 005°25'0 0.0
2015-May-10 19:22N 36°06' W 005°25'0 0.0
2015-May-10 18:25N 36°06' W 005°25'0 0.0
2015-May-10 17:31N 36°06' W 005°25'2 2.1
2015-May-10 16:33N 36°08' W 005°25'0 0.5
2015-May-10 15:33N 36°08' W 005°26'0 0.0
2015-May-10 14:18N 36°08' W 005°26'0 0.0
2015-May-10 13:21N 36°08' W 005°26'0 0.0
2015-May-10 12:15N 36°08' W 005°26'0 0.0
2015-May-10 11:21N 36°08' W 005°26'0 0.0
2015-May-10 10:27N 36°08' W 005°26'0 0.0
2015-May-10 09:33N 36°08' W 005°26'2 2.4
2015-May-10 08:31N 36°06' W 005°25'0 0.0
2015-May-10 05:25N 36°06' W 005°25'0 0.0
2015-May-10 04:28N 36°06' W 005°25'0 0.0
2015-May-10 03:31N 36°06' W 005°25'0 0.0
2015-May-10 02:22N 36°06' W 005°25'0 0.1
2015-May-10 00:07N 36°06' W 005°25'1 0.3
2015-May-09 22:30N 36°05' W 005°25'0 0.0
2015-May-09 21:33N 36°05' W 005°25'0 0.0
2015-May-09 20:33N 36°05' W 005°25'0 0.1
2015-May-09 18:30N 36°06' W 005°25'1 0.7
2015-May-09 17:25N 36°06' W 005°25'0 0.1
2015-May-09 16:31N 36°06' W 005°25'0 0.1
2015-May-09 15:16N 36°06' W 005°25'0 0.0
2015-May-09 14:31N 36°06' W 005°25'0 0.0
2015-May-09 13:31N 36°06' W 005°25'0 0.0
2015-May-09 12:31N 36°06' W 005°25'0 0.0
2015-May-09 09:22N 36°06' W 005°25'0 0.1
2015-May-09 08:32N 36°06' W 005°25'3 0.4
2015-May-09 01:04N 36°09' W 005°26'0 0.0
2015-May-09 00:31N 36°09' W 005°26'1 0.1
2015-May-08 14:30N 36°09' W 005°25'3 2.8
2015-May-08 13:33N 36°07' W 005°25'2 1.7
2015-May-08 12:33N 36°05' W 005°24'0 0.1
2015-May-08 11:15N 36°05' W 005°24'0 0.0
2015-May-08 10:30N 36°05' W 005°24'0 0.0
2015-May-08 09:27N 36°05' W 005°24'0 0.1
2015-May-08 08:33N 36°05' W 005°24'4 0.1
2015-May-07 05:32N 36°09' W 005°26'0 0.0
2015-May-07 04:32N 36°09' W 005°26'0 0.0
2015-May-07 01:32N 36°09' W 005°26'0 0.0
2015-May-07 00:32N 36°09' W 005°26'0 0.1
2015-May-06 23:32N 36°09' W 005°26'0 0.1
2015-May-06 22:32N 36°09' W 005°26'0 0.0
2015-May-06 21:32N 36°09' W 005°26'0 0.0
2015-May-06 20:32N 36°09' W 005°26'0 0.0
2015-May-06 19:29N 36°09' W 005°26'0 0.4
2015-May-06 18:32N 36°08' W 005°25'3 2.7
2015-May-06 17:31N 36°06' W 005°24'0 0.0
2015-May-06 16:31N 36°06' W 005°24'0 0.0
2015-May-06 15:28N 36°06' W 005°24'3 3.6
2015-May-06 14:33N 36°09' W 005°26'0 0.3
2015-May-06 13:29N 36°09' W 005°26'0 0.0
2015-May-06 12:29N 36°09' W 005°26'0 0.0
2015-May-06 11:32N 36°09' W 005°26'0 0.0
2015-May-06 10:29N 36°09' W 005°26'0 0.0
2015-May-06 09:23N 36°09' W 005°26'0 0.0
2015-May-06 08:23N 36°09' W 005°26'0 0.0
2015-May-06 07:23N 36°09' W 005°26'0 0.0
2015-May-06 04:17N 36°09' W 005°26'0 0.0
2015-May-06 03:32N 36°09' W 005°26'0 0.0
2015-May-06 02:29N 36°09' W 005°26'1 0.9
2015-May-06 01:30N 36°08' W 005°25'0 0.0
2015-May-06 00:30N 36°08' W 005°25'0 0.0
2015-May-05 23:12N 36°08' W 005°25'0 0.0
2015-May-05 22:30N 36°08' W 005°25'0 0.0
2015-May-05 21:33N 36°08' W 005°25'0 0.0
2015-May-05 20:30N 36°08' W 005°25'0 0.0
2015-May-05 19:33N 36°08' W 005°25'0 0.0
2015-May-05 18:23N 36°08' W 005°25'1 0.4
2015-May-05 16:04N 36°09' W 005°26'2 1.5
2015-May-05 14:26N 36°11' W 005°24'0 0.0
2015-May-05 08:21N 36°11' W 005°24'  

Dump ship's entire track history